Time;durP1;ratioP1;P1;durP2;ratioP2;P2;SDS_P1;SDS_P2;PMS_P1;PMS_P2;Temp;Humidity;BMP_temperature;BMP_pressure;BME280_temperature;BME280_humidity;BME280_pressure;Samples;Min_cycle;Max_cycle;Signal;HPM_P1;HPM_P2
2022/09/22 07:01:55;;;;;;;;;;;;;;;;;;10380272;28;20030;-83
2022/09/22 07:06:56;;;;;;;4.78;3.70;;;;;;;;;;10399321;28;19913;-83
2022/09/22 07:11:58;;;;;;;7.53;3.60;;;;;;;;;;10415102;28;20026;-81
2022/09/22 07:17:03;;;;;;;7.35;5.03;;;;;;;;;;10414654;28;20030;-87
2022/09/22 07:22:05;;;;;;;10.23;6.75;;;;;;;;;;10398380;28;20064;-87
2022/09/22 07:27:06;;;;;;;10.50;7.47;;;;;;;;;;10398452;28;20056;-86
2022/09/22 07:32:14;;;;;;;9.50;7.18;;;;;;;;;;10397770;28;20032;-86
2022/09/22 07:37:15;;;;;;;6.68;4.28;;;;;;;;;;10396572;28;20449;-86
2022/09/22 07:42:18;;;;;;;6.22;4.30;;;;;;;;;;10394727;28;20036;-86
2022/09/22 07:48:34;;;;;;;8.32;4.32;;;;;;;;;;10423782;28;20101;-85
2022/09/22 07:52:44;;;;;;;;;;;;;;;;;;10394750;28;20030;-86
2022/09/22 07:57:56;;;;;;;6.60;4.20;;;;;;;;;;10395581;28;19909;-84
2022/09/22 08:02:57;;;;;;;6.72;4.43;;;;;;;;;;10383754;28;20075;-84
2022/09/22 08:08:02;;;;;;;7.65;3.78;;;;;;;;;;10386271;28;20399;-84
2022/09/22 08:13:03;;;;;;;7.63;3.38;;;;;;;;;;10400453;28;20057;-85
2022/09/22 08:18:05;;;;;;;7.18;3.53;;;;;;;;;;10383254;28;20561;-86
2022/09/22 08:23:07;;;;;;;4.78;3.50;;;;;;;;;;10383706;28;20100;-86
2022/09/22 08:28:09;;;;;;;5.78;3.17;;;;;;;;;;10392019;28;20039;-86
2022/09/22 08:33:10;;;;;;;6.03;2.85;;;;;;;;;;10381046;28;20022;-86
2022/09/22 08:38:11;;;;;;;5.50;3.10;;;;;;;;;;10383824;28;20167;-86
2022/09/22 08:43:14;;;;;;;4.78;2.35;;;;;;;;;;10381468;28;20037;-84
2022/09/22 08:53:47;;;;;;;6.00;2.55;;;;;;;;;;10380949;28;20065;-84
2022/09/22 08:59:03;;;;;;;6.07;3.00;;;;;;;;;;10380213;28;20026;-85
2022/09/22 09:04:10;;;;;;;4.10;2.28;;;;;;;;;;10379494;28;20117;-88
2022/09/22 09:09:19;;;;;;;7.05;2.13;;;;;;;;;;10381335;28;20551;-87
2022/09/22 09:14:38;;;;;;;5.70;2.25;;;;;;;;;;10392148;28;20041;-87
2022/09/22 09:19:49;;;;;;;5.53;2.30;;;;;;;;;;10389386;28;20512;-86
2022/09/22 09:24:59;;;;;;;7.18;2.30;;;;;;;;;;10390128;28;20034;-87
2022/09/22 09:30:03;;;;;;;3.97;1.85;;;;;;;;;;10383345;28;20398;-85
2022/09/22 09:35:04;;;;;;;4.35;1.95;;;;;;;;;;10383212;28;20556;-85
2022/09/22 09:40:13;;;;;;;4.68;2.10;;;;;;;;;;10396746;28;20076;-85
2022/09/22 09:45:15;;;;;;;4.28;2.25;;;;;;;;;;10382937;28;20033;-86
2022/09/22 09:50:16;;;;;;;5.72;2.05;;;;;;;;;;10386065;28;20382;-85
2022/09/22 09:55:17;;;;;;;4.80;2.25;;;;;;;;;;10378174;28;20022;-88
2022/09/22 10:00:31;;;;;;;3.40;1.90;;;;;;;;;;10377425;28;20030;-86
2022/09/22 10:05:36;;;;;;;3.10;1.70;;;;;;;;;;10380799;28;20065;-86
2022/09/22 10:10:40;;;;;;;2.55;1.60;;;;;;;;;;10396302;28;20083;-84
2022/09/22 10:16:10;;;;;;;3.42;1.85;;;;;;;;;;10395811;28;20028;-86
2022/09/22 10:21:27;;;;;;;2.78;1.65;;;;;;;;;;10390147;28;20045;-87
2022/09/22 10:26:37;;;;;;;2.90;1.77;;;;;;;;;;10382336;28;20077;-87
2022/09/22 10:32:04;;;;;;;2.78;1.90;;;;;;;;;;10380893;28;20028;-86
2022/09/22 10:37:14;;;;;;;2.35;1.65;;;;;;;;;;10384849;28;20106;-85
2022/09/22 10:42:46;;;;;;;2.45;1.55;;;;;;;;;;10388523;28;20180;-86
2022/09/22 10:53:21;;;;;;;4.28;2.20;;;;;;;;;;10379924;28;20037;-84
2022/09/22 10:58:26;;;;;;;3.20;1.65;;;;;;;;;;10389018;28;20030;-86
2022/09/22 11:04:01;;;;;;;2.10;1.48;;;;;;;;;;10388896;28;20473;-85
2022/09/22 11:14:49;;;;;;;2.35;1.40;;;;;;;;;;10387622;28;20104;-87
2022/09/22 11:19:54;;;;;;;2.42;1.20;;;;;;;;;;10362125;28;20038;-84
2022/09/22 11:25:08;;;;;;;2.55;1.25;;;;;;;;;;10365630;28;20061;-88
2022/09/22 11:30:19;;;;;;;1.88;1.40;;;;;;;;;;10369056;28;20026;-86
2022/09/22 11:35:30;;;;;;;2.08;1.20;;;;;;;;;;10364297;28;20053;-87
2022/09/22 11:40:38;;;;;;;3.78;1.90;;;;;;;;;;10360935;28;20034;-87
2022/09/22 11:45:45;;;;;;;3.38;1.55;;;;;;;;;;10361720;28;20061;-85
2022/09/22 11:50:56;;;;;;;3.30;1.10;;;;;;;;;;10373202;28;20023;-85
2022/09/22 11:55:57;;;;;;;3.63;1.10;;;;;;;;;;10345265;28;20053;-86
2022/09/22 12:01:05;;;;;;;4.38;2.92;;;;;;;;;;10360910;28;20121;-86
2022/09/22 12:06:12;;;;;;;6.95;2.08;;;;;;;;;;10355614;28;20045;-87
2022/09/22 12:11:14;;;;;;;3.55;1.20;;;;;;;;;;10357873;28;20022;-86
2022/09/22 12:16:21;;;;;;;2.53;1.25;;;;;;;;;;10343333;28;20033;-87
2022/09/22 12:21:45;;;;;;;2.30;1.17;;;;;;;;;;10342089;28;20095;-86
2022/09/22 12:26:48;;;;;;;3.08;1.00;;;;;;;;;;10358499;28;20125;-84
2022/09/22 12:31:50;;;;;;;3.05;1.00;;;;;;;;;;10358540;28;20383;-85
2022/09/22 12:36:58;;;;;;;1.92;0.88;;;;;;;;;;10363404;28;20518;-81
2022/09/22 12:42:00;;;;;;;1.25;0.70;;;;;;;;;;10348087;28;20038;-82
2022/09/22 12:47:16;;;;;;;2.30;1.10;;;;;;;;;;10367415;28;20030;-83
2022/09/22 12:52:37;;;;;;;2.78;1.90;;;;;;;;;;10375298;28;20463;-83
2022/09/22 13:09:30;;;;;;;1.92;1.08;;;;;;;;;;10217983;29;20521;-83
2022/09/22 13:15:11;;;;;;;2.75;1.50;;;;;;;;;;10271721;28;20499;-84
2022/09/22 13:20:50;;;;;;;1.83;1.25;;;;;;;;;;10299374;28;20102;-85
2022/09/22 13:25:54;;;;;;;2.58;1.70;;;;;;;;;;10325852;28;20130;-82
2022/09/22 13:31:00;;;;;;;2.50;1.60;;;;;;;;;;10364314;28;20498;-85
2022/09/22 13:36:10;;;;;;;3.80;1.20;;;;;;;;;;10363967;28;20483;-83
2022/09/22 13:41:18;;;;;;;1.83;1.10;;;;;;;;;;10362056;28;20489;-81
2022/09/22 13:46:38;;;;;;;2.45;1.17;;;;;;;;;;10361499;28;20034;-82
2022/09/22 13:51:39;;;;;;;1.70;1.00;;;;;;;;;;10359883;28;20042;-82
2022/09/22 13:56:56;;;;;;;1.75;1.10;;;;;;;;;;10373064;28;20041;-83
2022/09/22 14:02:18;;;;;;;1.67;1.05;;;;;;;;;;10381260;28;20034;-84
2022/09/22 14:18:20;;;;;;;1.55;1.05;;;;;;;;;;10354993;28;20543;-85
2022/09/22 14:23:32;;;;;;;2.33;1.73;;;;;;;;;;10375492;28;20113;-85
2022/09/22 14:29:13;;;;;;;3.78;1.30;;;;;;;;;;10387514;28;20057;-86
2022/09/22 14:34:21;;;;;;;2.95;1.30;;;;;;;;;;10433855;28;20105;-82
2022/09/22 14:39:24;;;;;;;3.35;1.10;;;;;;;;;;10429203;28;20048;-84
2022/09/22 14:44:47;;;;;;;4.93;4.22;;;;;;;;;;10415547;28;20438;-86
2022/09/22 14:49:48;;;;;;;2.45;1.65;;;;;;;;;;10422712;28;20033;-84
2022/09/22 14:54:51;;;;;;;2.58;1.70;;;;;;;;;;10388516;28;20022;-86
2022/09/22 15:05:33;;;;;;;3.95;1.20;;;;;;;;;;10386794;28;20042;-86
2022/09/22 15:10:36;;;;;;;1.90;1.30;;;;;;;;;;10402271;28;20033;-87
2022/09/22 15:16:03;;;;;;;3.88;2.20;;;;;;;;;;10388913;28;20126;-87
2022/09/22 15:21:35;;;;;;;2.00;1.10;;;;;;;;;;10415326;28;20040;-86
2022/09/22 15:26:48;;;;;;;3.55;1.33;;;;;;;;;;10401183;28;20108;-87
2022/09/22 15:31:50;;;;;;;3.13;1.20;;;;;;;;;;10425339;28;20474;-87
2022/09/22 15:36:56;;;;;;;9.82;4.97;;;;;;;;;;10425423;28;20065;-87
2022/09/22 15:41:57;;;;;;;3.83;1.20;;;;;;;;;;10450144;28;20473;-88
2022/09/22 15:47:00;;;;;;;3.17;1.65;;;;;;;;;;10415342;28;20120;-85
2022/09/22 15:52:04;;;;;;;2.80;1.70;;;;;;;;;;10413393;28;20481;-88
2022/09/22 15:57:08;;;;;;;1.98;1.30;;;;;;;;;;10414124;28;20028;-87
2022/09/22 16:02:16;;;;;;;3.10;1.50;;;;;;;;;;10409597;28;20472;-88
2022/09/22 16:07:19;;;;;;;2.78;1.50;;;;;;;;;;10414777;28;20041;-87
2022/09/22 16:12:30;;;;;;;2.92;1.23;;;;;;;;;;10450180;28;20025;-86
2022/09/22 16:17:50;;;;;;;3.97;1.40;;;;;;;;;;10460831;28;20051;-87
2022/09/22 16:22:51;;;;;;;2.47;1.50;;;;;;;;;;10447145;28;20449;-86
2022/09/22 16:27:53;;;;;;;3.17;1.50;;;;;;;;;;10454271;28;20045;-85
2022/09/22 16:32:54;;;;;;;3.42;1.40;;;;;;;;;;10454460;28;20044;-85
2022/09/22 16:37:56;;;;;;;2.17;1.50;;;;;;;;;;10473836;28;20053;-87
2022/09/22 16:42:57;;;;;;;2.45;1.23;;;;;;;;;;10482433;28;20022;-87
2022/09/22 16:47:58;;;;;;;1.55;1.27;;;;;;;;;;10482790;28;20025;-87
2022/09/22 16:52:59;;;;;;;2.63;1.60;;;;;;;;;;10471176;28;20473;-86
2022/09/22 16:58:00;;;;;;;4.57;2.05;;;;;;;;;;10455747;28;20030;-88
2022/09/22 17:03:01;;;;;;;3.08;1.60;;;;;;;;;;10455006;28;20044;-85
2022/09/22 17:08:02;;;;;;;1.60;1.27;;;;;;;;;;10455147;28;20061;-83
2022/09/22 17:13:03;;;;;;;3.50;1.70;;;;;;;;;;10448693;28;20108;-85
2022/09/22 17:18:05;;;;;;;3.70;1.80;;;;;;;;;;10448810;28;20064;-85
2022/09/22 17:23:06;;;;;;;2.30;1.70;;;;;;;;;;10440376;28;20025;-84
2022/09/22 17:28:07;;;;;;;3.08;1.88;;;;;;;;;;10423945;28;20017;-84
2022/09/22 17:33:08;;;;;;;3.05;1.63;;;;;;;;;;10438000;28;20120;-85
2022/09/22 17:38:09;;;;;;;3.50;2.00;;;;;;;;;;10437535;28;20120;-85
2022/09/22 17:43:10;;;;;;;2.10;1.60;;;;;;;;;;10442421;28;20485;-86
2022/09/22 17:58:55;;;;;;;2.60;1.60;;;;;;;;;;10412017;28;20393;-87
2022/09/22 18:03:56;;;;;;;2.05;1.63;;;;;;;;;;10437565;28;20022;-86
2022/09/22 18:09:01;;;;;;;2.55;1.85;;;;;;;;;;10439248;28;20064;-86
2022/09/22 18:14:02;;;;;;;3.10;2.35;;;;;;;;;;10438176;28;20053;-87
2022/09/22 18:19:05;;;;;;;5.32;3.63;;;;;;;;;;10439894;28;20034;-86
2022/09/22 18:24:06;;;;;;;6.20;4.47;;;;;;;;;;10445565;28;20025;-88
2022/09/22 18:29:09;;;;;;;5.40;3.53;;;;;;;;;;10425612;28;20588;-87
2022/09/22 18:34:10;;;;;;;3.83;2.75;;;;;;;;;;10444037;28;20044;-86
2022/09/22 18:39:11;;;;;;;3.50;2.25;;;;;;;;;;10424599;28;20037;-87
2022/09/22 18:44:14;;;;;;;3.83;2.25;;;;;;;;;;10440523;28;20116;-86
2022/09/22 18:49:15;;;;;;;3.10;2.40;;;;;;;;;;10399655;28;20038;-85
2022/09/22 18:54:17;;;;;;;3.00;2.55;;;;;;;;;;10399250;28;20086;-86
2022/09/22 18:59:19;;;;;;;3.65;3.22;;;;;;;;;;10398290;28;20518;-85
2022/09/22 19:04:22;;;;;;;5.38;3.42;;;;;;;;;;10401120;28;20034;-85
2022/09/22 19:09:23;;;;;;;2.78;2.35;;;;;;;;;;10389248;28;20049;-85
2022/09/22 19:14:24;;;;;;;2.85;1.83;;;;;;;;;;10386889;28;20033;-86
2022/09/22 19:19:25;;;;;;;2.95;2.22;;;;;;;;;;10384127;28;20053;-87
